If you wish to contribute or participate in the discussions about articles you are invited to join SKYbrary as a registered user

 Actions

Lyon/Saint-Exupery

From SKYbrary Wiki

LFLL
Airport
ICAO: LFLL – IATA: LYS
Summary
Name Lyon/Saint-Exupery
Region Europe
Territory France FR.gif
Location Colombier-Saugnieu, Rhone-Alpes
Serving Lyon
Elevation 250.241 m <br />821 ft250.241 m <br />
Coordinates 45° 43' 32.02" N, 5° 4' 52.00" E
Runways
Designator Length Width Surface ROPS
18L/36R 2670 m8,759.843 ft <br /> 45 m147.638 ft <br /> ASP yes/yes
18R/36L 4000 m13,123.36 ft <br /> 45 m147.638 ft <br /> ASP yes/yes


METAR
Observation LFLL 251730Z 16006KT CAVOK 17/03 Q1028 NOSIG
Station Lyon / Satolas
Date/Time 25 February 2021 17:30:00
Wind direction 160°
Wind speed 06 kts
Lowest cloud amount clouds and visibility OK
Temperature 17°C
Dew point 3°C
Humidity 39%
QNH 1028 hPa
Weather condition n/a

Description

International airport serving city of Lyon in France; formerly known as Lyon Satolas.

Climatology

Humid Subtropical (Köppen climate classification Cfa).

Maps

Terrain

Loading map...

Airport Layout

Loading map...


Accidents & Serious Incidents at or in vicinity of LFLL

{{#ask:Lyon/Saint-Exupery |default=None on SKYbrary